createdAt,value
2018-02-07T00:01:19.119Z,20.73
2018-02-07T00:03:47.469Z,22.73
2018-02-07T00:06:16.579Z,21.37
2018-02-07T00:08:44.999Z,21.67
2018-02-07T00:11:13.340Z,24.47
2018-02-07T00:13:41.725Z,23.47
2018-02-07T00:16:10.097Z,21.97
2018-02-07T00:18:38.457Z,22.30
2018-02-07T00:21:07.569Z,24.47
2018-02-07T00:23:35.975Z,21.90
2018-02-07T00:26:04.345Z,19.63
2018-02-07T00:28:32.691Z,22.43
2018-02-07T00:31:01.810Z,22.40
2018-02-07T00:33:30.184Z,20.63
2018-02-07T00:35:58.528Z,22.77
2018-02-07T00:38:26.880Z,21.13
2018-02-07T00:40:55.240Z,22.50
2018-02-07T00:43:23.730Z,20.83
2018-02-07T00:45:52.063Z,21.60
2018-02-07T00:48:21.177Z,20.83
2018-02-07T00:50:49.555Z,23.33
2018-02-07T00:53:17.894Z,21.73
2018-02-07T00:55:46.236Z,23.10
2018-02-07T00:58:14.619Z,21.27
2018-02-07T01:00:43.088Z,24.17
2018-02-07T01:03:11.451Z,23.57
2018-02-07T01:05:39.801Z,19.37
2018-02-07T01:08:08.163Z,23.90
2018-02-07T01:10:36.603Z,20.97
2018-02-07T01:13:04.945Z,20.00
2018-02-07T01:15:34.188Z,19.87
2018-02-07T01:18:02.524Z,20.63
2018-02-07T01:20:31.669Z,19.77
2018-02-07T01:23:00.022Z,24.23
2018-02-07T01:25:28.416Z,20.87
2018-02-07T01:27:56.800Z,18.37
2018-02-07T01:30:25.190Z,21.43
2018-02-07T01:32:53.536Z,20.17
2018-02-07T01:35:21.876Z,20.27
2018-02-07T01:37:50.236Z,17.90
2018-02-07T01:40:18.589Z,21.97
2018-02-07T01:42:46.943Z,18.77
2018-02-07T01:45:15.352Z,17.50
2018-02-07T01:47:43.732Z,20.03
2018-02-07T01:50:12.321Z,21.73
2018-02-07T01:52:40.660Z,21.03
2018-02-07T01:55:09.892Z,17.97
2018-02-07T01:57:38.279Z,16.77
2018-02-07T02:00:06.646Z,16.33
2018-02-07T02:02:35.016Z,19.80
2018-02-07T02:05:03.400Z,17.10
2018-02-07T02:07:31.757Z,18.37
2018-02-07T02:10:00.864Z,19.17
2018-02-07T02:12:29.236Z,18.07
2018-02-07T02:14:58.347Z,19.83
2018-02-07T02:17:26.853Z,16.10
2018-02-07T02:19:55.194Z,17.33
2018-02-07T02:22:24.416Z,19.40
2018-02-07T02:24:52.836Z,18.27
2018-02-07T02:27:21.181Z,17.03
2018-02-07T02:29:49.536Z,18.13
2018-02-07T02:32:18.027Z,15.00
2018-02-07T02:34:46.389Z,15.40
2018-02-07T02:37:15.502Z,16.83
2018-02-07T02:39:43.864Z,16.57
2018-02-07T02:42:12.971Z,15.87
2018-02-07T02:44:41.344Z,16.07
2018-02-07T02:47:10.464Z,15.37
2018-02-07T02:49:38.808Z,16.17
2018-02-07T02:52:08.103Z,14.03
2018-02-07T02:54:36.523Z,17.10
2018-02-07T02:57:04.900Z,16.37
2018-02-07T02:59:33.276Z,16.80
2018-02-07T03:02:01.668Z,15.47
2018-02-07T03:04:30.020Z,15.60
2018-02-07T03:06:58.362Z,18.40
2018-02-07T03:09:26.905Z,17.53
2018-02-07T03:11:55.281Z,18.67
2018-02-07T03:14:23.618Z,15.63
2018-02-07T03:16:51.960Z,15.57
2018-02-07T03:19:20.300Z,16.70
2018-02-07T03:21:48.654Z,19.60
2018-02-07T03:24:17.893Z,18.83
2018-02-07T03:26:46.253Z,16.37
2018-02-07T03:29:14.597Z,15.17
2018-02-07T03:31:43.132Z,17.23
2018-02-07T03:34:12.372Z,15.67
2018-02-07T03:36:40.702Z,14.70
2018-02-07T03:39:09.091Z,18.07
2018-02-07T03:41:37.440Z,12.63
2018-02-07T03:44:06.580Z,15.93
2018-02-07T03:46:34.916Z,19.50
2018-02-07T03:49:04.223Z,15.10
2018-02-07T03:51:33.334Z,18.00
2018-02-07T03:54:01.718Z,17.40
2018-02-07T03:56:30.075Z,15.60
2018-02-07T03:58:59.197Z,17.03
2018-02-07T04:01:27.545Z,18.33
2018-02-07T04:03:56.823Z,15.20
2018-02-07T04:06:25.196Z,17.00
2018-02-07T04:08:53.543Z,17.97
2018-02-07T04:11:22.811Z,17.17
2018-02-07T04:13:51.167Z,15.67
2018-02-07T04:16:19.507Z,16.57
2018-02-07T04:18:47.854Z,19.27
2018-02-07T04:21:16.199Z,17.87
2018-02-07T04:23:44.564Z,18.73
2018-02-07T04:26:13.019Z,17.33
2018-02-07T04:28:41.391Z,18.63
2018-02-07T04:31:09.752Z,14.43
2018-02-07T04:33:38.105Z,19.80
2018-02-07T04:36:07.232Z,17.43
2018-02-07T04:38:35.623Z,16.70
2018-02-07T04:41:04.014Z,20.00
2018-02-07T04:43:32.389Z,19.07
2018-02-07T04:46:00.720Z,15.53
2018-02-07T04:48:29.830Z,15.33
2018-02-07T04:50:58.227Z,18.57
2018-02-07T04:53:27.390Z,20.13
2018-02-07T04:55:55.738Z,16.67
2018-02-07T04:58:24.104Z,19.40
2018-02-07T05:00:52.556Z,15.70
2018-02-07T05:03:21.656Z,17.57
2018-02-07T05:05:50.013Z,17.40
2018-02-07T05:08:19.117Z,18.33
2018-02-07T05:10:47.636Z,16.13
2018-02-07T05:13:16.009Z,16.30
2018-02-07T05:15:44.376Z,17.77
2018-02-07T05:18:12.764Z,16.33
2018-02-07T05:20:41.222Z,14.83
2018-02-07T05:23:10.326Z,17.83
2018-02-07T05:25:38.886Z,18.13
2018-02-07T05:28:07.230Z,19.53
2018-02-07T05:30:35.564Z,18.23
2018-02-07T05:33:03.977Z,16.23
2018-02-07T05:35:32.355Z,19.17
2018-02-07T05:38:00.691Z,22.00
2018-02-07T05:40:29.869Z,20.87
2018-02-07T05:42:58.247Z,18.87
2018-02-07T05:45:26.596Z,19.70
2018-02-07T05:47:55.041Z,16.57
2018-02-07T05:50:23.404Z,19.67
2018-02-07T05:52:52.535Z,24.37
2018-02-07T05:55:20.859Z,16.63
2018-02-07T05:57:49.332Z,16.03
2018-02-07T06:00:17.667Z,20.30
2018-02-07T06:02:46.018Z,17.03
2018-02-07T06:05:14.370Z,21.67
2018-02-07T06:07:42.749Z,23.07
2018-02-07T06:10:11.150Z,38.17
2018-02-07T06:12:39.478Z,21.63
2018-02-07T06:15:07.850Z,17.33
2018-02-07T06:17:36.200Z,19.80
2018-02-07T06:20:04.555Z,14.70
2018-02-07T06:22:33.676Z,18.87
2018-02-07T06:25:02.036Z,18.67
2018-02-07T06:27:31.161Z,18.33
2018-02-07T06:29:59.504Z,19.37
2018-02-07T06:32:28.780Z,33.63
2018-02-07T06:34:57.143Z,22.27
2018-02-07T06:37:25.512Z,21.13
2018-02-07T06:39:53.855Z,24.93
2018-02-07T06:42:23.084Z,17.70
2018-02-07T06:44:51.466Z,21.57
2018-02-07T06:47:19.870Z,19.83
2018-02-07T06:49:48.218Z,18.00
2018-02-07T06:52:16.565Z,37.90
2018-02-07T06:54:45.712Z,20.63
2018-02-07T06:57:14.062Z,19.97
2018-02-07T06:59:42.426Z,19.40
2018-02-07T07:02:11.527Z,21.83
2018-02-07T07:04:39.886Z,23.33
2018-02-07T07:07:08.316Z,18.10
2018-02-07T07:09:36.659Z,22.97
2018-02-07T07:12:05.784Z,19.73
2018-02-07T07:14:34.134Z,22.20
2018-02-07T07:17:03.279Z,20.77
2018-02-07T07:19:31.623Z,20.40
2018-02-07T07:21:59.971Z,21.00
2018-02-07T07:24:28.328Z,18.90
2018-02-07T07:26:56.675Z,24.30
2018-02-07T07:29:25.946Z,23.03
2018-02-07T07:31:55.073Z,20.10
2018-02-07T07:34:23.428Z,21.30
2018-02-07T07:36:52.548Z,20.87
2018-02-07T07:39:20.980Z,20.67
2018-02-07T07:41:49.328Z,20.20
2018-02-07T07:44:17.680Z,25.30
2018-02-07T07:46:46.086Z,24.23
2018-02-07T07:49:14.436Z,22.73
2018-02-07T07:51:42.826Z,26.80
2018-02-07T07:54:11.174Z,23.60
2018-02-07T07:56:39.540Z,22.30
2018-02-07T07:59:08.774Z,23.17
2018-02-07T08:01:37.144Z,20.73
2018-02-07T08:04:05.524Z,22.53
2018-02-07T08:06:33.885Z,21.80
2018-02-07T08:09:03.024Z,24.97
2018-02-07T08:11:31.387Z,22.07
2018-02-07T08:14:00.056Z,21.57
2018-02-07T08:19:03.856Z,19.07
2018-02-07T08:21:32.216Z,23.87
2018-02-07T08:24:01.411Z,19.80
2018-02-07T08:26:29.878Z,21.63
2018-02-07T08:28:58.257Z,21.20
2018-02-07T08:31:26.649Z,22.97
2018-02-07T08:33:55.017Z,21.87
2018-02-07T08:36:23.419Z,24.17
2018-02-07T08:38:51.806Z,23.43
2018-02-07T08:41:20.220Z,26.33
2018-02-07T08:43:48.581Z,25.73
2018-02-07T08:46:17.088Z,25.00
2018-02-07T08:48:45.443Z,23.63
2018-02-07T08:51:14.556Z,24.30
2018-02-07T08:53:42.904Z,23.53
2018-02-07T08:56:11.267Z,23.10
2018-02-07T08:58:39.625Z,27.30
2018-02-07T09:01:07.967Z,24.80
2018-02-07T09:03:36.311Z,24.07
2018-02-07T09:06:04.696Z,25.43
2018-02-07T09:08:33.046Z,26.77
2018-02-07T09:11:01.494Z,24.23
2018-02-07T09:13:30.613Z,24.53
2018-02-07T09:15:59.154Z,23.90
2018-02-07T09:18:27.490Z,22.03
2018-02-07T09:20:55.828Z,23.90
2018-02-07T09:23:24.549Z,20.03
2018-02-07T09:25:52.918Z,24.47
2018-02-07T09:28:21.289Z,20.20
2018-02-07T09:30:49.641Z,20.83
2018-02-07T09:33:18.743Z,22.17
2018-02-07T09:35:47.154Z,24.20
2018-02-07T09:38:15.480Z,26.30
2018-02-07T09:40:43.837Z,24.63
2018-02-07T09:43:12.171Z,21.63
2018-02-07T09:45:41.137Z,21.43
2018-02-07T09:48:09.471Z,25.63
2018-02-07T09:50:37.816Z,24.40
2018-02-07T09:53:06.176Z,39.57
2018-02-07T09:55:35.288Z,24.17
2018-02-07T09:58:04.504Z,20.33
2018-02-07T10:00:32.884Z,24.93
2018-02-07T10:03:01.206Z,24.97
2018-02-07T10:05:29.549Z,19.03
2018-02-07T10:07:57.949Z,22.80
2018-02-07T10:10:27.239Z,20.43
2018-02-07T10:12:55.585Z,24.47
2018-02-07T10:15:24.977Z,25.60
2018-02-07T10:17:53.323Z,24.30
2018-02-07T10:20:21.664Z,21.77
2018-02-07T10:22:50.052Z,22.50
2018-02-07T10:25:18.391Z,22.43
2018-02-07T10:27:47.511Z,24.93
2018-02-07T10:30:15.974Z,25.33
2018-02-07T10:32:44.389Z,24.47
2018-02-07T10:35:12.747Z,22.87
2018-02-07T10:37:41.090Z,23.80
2018-02-07T10:40:09.435Z,20.33
2018-02-07T10:42:37.817Z,24.37
2018-02-07T10:45:06.125Z,22.73
2018-02-07T10:47:34.459Z,22.40
2018-02-07T10:50:02.831Z,27.20
2018-02-07T10:52:31.209Z,27.13
2018-02-07T10:54:59.583Z,24.97
2018-02-07T10:57:27.977Z,21.40
2018-02-07T10:59:56.321Z,23.33
2018-02-07T11:02:24.671Z,23.37
2018-02-07T11:04:53.023Z,19.50
2018-02-07T11:07:21.423Z,21.80
2018-02-07T11:09:49.825Z,21.30
2018-02-07T11:12:18.268Z,21.87
2018-02-07T11:14:46.647Z,21.70
2018-02-07T11:17:14.985Z,22.17
2018-02-07T11:19:43.371Z,20.53
2018-02-07T11:22:11.768Z,22.37
2018-02-07T11:24:40.245Z,22.07
2018-02-07T11:27:08.598Z,21.13
2018-02-07T11:29:36.951Z,23.60
2018-02-07T11:32:05.400Z,20.43
2018-02-07T11:34:33.740Z,24.17
2018-02-07T11:37:02.095Z,25.33
2018-02-07T11:39:30.476Z,23.67
2018-02-07T11:41:59.624Z,24.37
2018-02-07T11:44:28.004Z,19.53
2018-02-07T11:46:56.561Z,23.97
2018-02-07T11:49:24.954Z,23.63
2018-02-07T11:51:53.286Z,20.37
2018-02-07T11:54:21.632Z,22.97
2018-02-07T11:56:49.959Z,22.87
2018-02-07T11:59:19.107Z,19.13
2018-02-07T12:01:47.459Z,20.70
2018-02-07T12:04:15.840Z,20.63
2018-02-07T12:06:44.212Z,21.13
2018-02-07T12:09:12.605Z,20.10
2018-02-07T12:11:41.663Z,19.83
2018-02-07T12:14:10.792Z,21.07
2018-02-07T12:16:39.172Z,20.43
2018-02-07T12:19:07.563Z,25.00
2018-02-07T12:21:36.258Z,20.80
2018-02-07T12:24:04.619Z,18.33
2018-02-07T12:26:33.065Z,18.33
2018-02-07T12:29:01.440Z,20.97
2018-02-07T12:31:29.779Z,20.33
2018-02-07T12:33:58.320Z,18.80
2018-02-07T12:36:26.708Z,28.50
2018-02-07T12:38:55.124Z,21.57
2018-02-07T12:41:23.478Z,20.67
2018-02-07T12:43:51.861Z,21.57
2018-02-07T12:46:20.222Z,19.47
2018-02-07T12:48:48.749Z,21.53
2018-02-07T12:51:17.089Z,18.70
2018-02-07T12:53:45.471Z,20.40
2018-02-07T12:56:13.867Z,22.30
2018-02-07T12:58:42.202Z,20.63
2018-02-07T13:01:10.587Z,19.97
2018-02-07T13:03:39.807Z,20.17
2018-02-07T13:06:08.203Z,19.97
2018-02-07T13:08:36.548Z,18.77
2018-02-07T13:11:05.770Z,20.10
2018-02-07T13:13:34.164Z,21.77
2018-02-07T13:16:02.524Z,20.00
2018-02-07T13:18:30.912Z,20.33
2018-02-07T13:20:59.267Z,20.43
2018-02-07T13:23:28.375Z,22.47
2018-02-07T13:25:56.770Z,19.53
2018-02-07T13:28:25.330Z,30.60
2018-02-07T13:30:53.734Z,22.50
2018-02-07T13:33:22.092Z,19.90
2018-02-07T13:35:50.442Z,19.40
2018-02-07T13:38:18.915Z,21.27
2018-02-07T13:40:47.257Z,25.43
2018-02-07T13:43:15.605Z,22.87
2018-02-07T13:45:43.952Z,21.20
2018-02-07T13:48:12.365Z,24.90
2018-02-07T13:50:40.806Z,22.23
2018-02-07T13:53:09.200Z,22.47
2018-02-07T13:55:37.579Z,19.13
2018-02-07T13:58:06.723Z,20.63
2018-02-07T14:00:40.747Z,21.43
2018-02-07T14:03:09.110Z,21.47
2018-02-07T14:05:37.496Z,21.63
2018-02-07T14:08:05.908Z,18.90
2018-02-07T14:10:34.285Z,22.00
2018-02-07T14:13:02.652Z,20.97
2018-02-07T14:15:31.103Z,21.73
2018-02-07T14:17:59.492Z,20.00
2018-02-07T14:20:27.869Z,23.37
2018-02-07T14:22:56.231Z,24.03
2018-02-07T14:25:24.591Z,26.10
2018-02-07T14:27:52.944Z,21.07
2018-02-07T14:30:21.325Z,20.90
2018-02-07T14:32:49.677Z,21.53
2018-02-07T14:35:18.034Z,21.50
2018-02-07T14:37:46.367Z,20.90
2018-02-07T14:40:14.790Z,19.53
2018-02-07T14:42:43.164Z,23.33
2018-02-07T14:45:11.601Z,21.53
2018-02-07T14:47:40.042Z,24.70
2018-02-07T14:50:08.397Z,19.73
2018-02-07T14:52:37.712Z,20.87
2018-02-07T14:55:06.068Z,25.50
2018-02-07T14:57:35.207Z,25.33
2018-02-07T15:00:03.568Z,24.93
2018-02-07T15:02:31.963Z,24.47
2018-02-07T15:05:00.317Z,22.87
2018-02-07T15:07:28.682Z,21.70
2018-02-07T15:09:58.566Z,26.47
2018-02-07T15:12:27.038Z,25.83
2018-02-07T15:14:55.400Z,24.30
2018-02-07T15:17:23.773Z,24.80
2018-02-07T15:19:52.164Z,24.07
2018-02-07T15:22:20.519Z,73.47
2018-02-07T15:24:48.909Z,37.10
2018-02-07T15:27:17.299Z,25.93
2018-02-07T15:29:45.684Z,25.17
2018-02-07T15:32:14.379Z,25.60
2018-02-07T15:34:42.811Z,27.67
2018-02-07T15:37:11.167Z,25.43
2018-02-07T15:39:39.529Z,25.20
2018-02-07T15:42:07.872Z,24.43
2018-02-07T15:44:36.215Z,27.27
2018-02-07T15:47:04.621Z,25.63
2018-02-07T15:49:33.173Z,26.10
2018-02-07T15:52:02.293Z,25.03
2018-02-07T15:54:30.657Z,25.43
2018-02-07T15:56:59.070Z,29.53
2018-02-07T15:59:27.464Z,26.50
2018-02-07T16:01:55.952Z,28.27
2018-02-07T16:04:24.292Z,27.77
2018-02-07T16:06:52.686Z,27.57
2018-02-07T16:09:21.228Z,26.83
2018-02-07T16:11:50.360Z,72.10
2018-02-07T16:14:18.745Z,61.87
2018-02-07T16:16:47.107Z,35.40
2018-02-07T16:19:15.497Z,30.60
2018-02-07T16:21:43.882Z,31.37
2018-02-07T16:24:12.306Z,27.00
2018-02-07T16:26:40.726Z,27.07
2018-02-07T16:29:09.087Z,29.77
2018-02-07T16:31:38.331Z,32.50
2018-02-07T16:34:06.701Z,31.00
2018-02-07T16:36:35.088Z,30.07
2018-02-07T16:39:03.475Z,30.20
2018-02-07T16:41:31.854Z,29.47
2018-02-07T16:44:00.309Z,31.90
2018-02-07T16:46:28.678Z,35.23
2018-02-07T16:48:57.124Z,33.40
2018-02-07T16:51:25.485Z,32.40
2018-02-07T16:53:53.854Z,32.73
2018-02-07T16:56:22.308Z,33.73
2018-02-07T16:58:50.661Z,33.47
2018-02-07T17:01:19.000Z,32.13
2018-02-07T17:03:47.479Z,31.37
2018-02-07T17:06:15.835Z,32.77
2018-02-07T17:08:44.246Z,32.27
2018-02-07T17:11:12.598Z,29.17
2018-02-07T17:13:41.080Z,32.47
2018-02-07T17:16:09.542Z,29.57
2018-02-07T17:18:37.928Z,31.90
2018-02-07T17:21:06.328Z,32.17
2018-02-07T17:23:34.735Z,34.53
2018-02-07T17:26:03.295Z,33.30
2018-02-07T17:28:31.666Z,30.43
2018-02-07T17:31:00.062Z,36.17
2018-02-07T17:33:29.786Z,39.40
2018-02-07T17:35:58.169Z,42.70
2018-02-07T17:38:26.709Z,34.93
2018-02-07T17:40:55.308Z,33.17
2018-02-07T17:43:23.774Z,31.13
2018-02-07T17:45:52.137Z,36.20
2018-02-07T17:48:20.504Z,33.23
2018-02-07T17:50:49.623Z,31.63
2018-02-07T17:53:17.976Z,34.10
2018-02-07T17:55:47.321Z,34.20
2018-02-07T17:58:15.668Z,33.50
2018-02-07T18:00:44.803Z,33.13
2018-02-07T18:03:14.080Z,35.13
2018-02-07T18:05:42.434Z,38.23
2018-02-07T18:08:10.864Z,33.23
2018-02-07T18:10:39.198Z,34.70
2018-02-07T18:13:07.572Z,35.33
2018-02-07T18:15:35.959Z,37.03
2018-02-07T18:18:05.109Z,35.80
2018-02-07T18:20:33.484Z,34.83
2018-02-07T18:23:01.869Z,36.47
2018-02-07T18:25:30.267Z,42.23
2018-02-07T18:27:58.616Z,36.87
2018-02-07T18:30:27.031Z,37.07
2018-02-07T18:32:56.229Z,38.83
2018-02-07T18:35:24.591Z,40.53
2018-02-07T18:37:52.962Z,36.03
2018-02-07T18:40:21.326Z,39.03
2018-02-07T18:42:49.729Z,40.67
2018-02-07T18:45:18.088Z,42.17
2018-02-07T18:47:46.461Z,38.60
2018-02-07T18:50:14.852Z,35.23
2018-02-07T18:52:43.200Z,42.13
2018-02-07T18:55:11.553Z,41.87
2018-02-07T18:57:40.676Z,41.00
2018-02-07T19:00:09.029Z,41.43
2018-02-07T19:02:38.145Z,39.40
2018-02-07T19:05:06.862Z,37.03
2018-02-07T19:07:35.216Z,40.57
2018-02-07T19:10:03.609Z,38.73
2018-02-07T19:12:31.972Z,43.57
2018-02-07T19:15:00.363Z,39.17
2018-02-07T19:17:28.732Z,39.10
2018-02-07T19:19:57.181Z,36.47
2018-02-07T19:22:25.552Z,37.90
2018-02-07T19:24:53.915Z,38.37
2018-02-07T19:27:22.349Z,41.27
2018-02-07T19:29:50.706Z,42.83
2018-02-07T19:32:19.863Z,77.80
2018-02-07T19:34:48.220Z,68.67
2018-02-07T19:37:16.599Z,44.43
2018-02-07T19:39:45.732Z,46.87
2018-02-07T19:42:14.105Z,39.23
2018-02-07T19:44:42.502Z,38.87
2018-02-07T19:47:10.868Z,35.33
2018-02-07T19:49:39.227Z,40.10
2018-02-07T19:52:07.621Z,45.10
2018-02-07T19:54:35.977Z,40.10
2018-02-07T19:57:04.358Z,39.63
2018-02-07T19:59:32.713Z,40.03
2018-02-07T20:02:01.100Z,39.60
2018-02-07T20:04:29.540Z,43.43
2018-02-07T20:06:57.894Z,39.63
2018-02-07T20:09:26.280Z,40.83
2018-02-07T20:11:54.684Z,39.60
2018-02-07T20:14:23.068Z,46.83
2018-02-07T20:16:52.191Z,44.50
2018-02-07T20:19:20.534Z,43.30
2018-02-07T20:21:49.673Z,42.43
2018-02-07T20:24:18.040Z,41.40
2018-02-07T20:26:46.401Z,47.67
2018-02-07T20:29:14.739Z,41.40
2018-02-07T20:31:43.103Z,42.10
2018-02-07T20:34:11.583Z,42.37
2018-02-07T20:36:40.037Z,48.43
2018-02-07T20:39:08.396Z,42.13
2018-02-07T20:41:37.511Z,47.17
2018-02-07T20:44:05.877Z,42.60
2018-02-07T20:46:35.000Z,106.67
2018-02-07T20:49:03.367Z,63.97
2018-02-07T20:51:31.710Z,51.93
2018-02-07T20:54:00.066Z,44.00
2018-02-07T20:56:28.416Z,42.77
2018-02-07T20:58:56.856Z,44.57
2018-02-07T21:01:25.290Z,40.93
2018-02-07T21:03:53.642Z,44.93
2018-02-07T21:06:22.577Z,39.40
2018-02-07T21:08:50.936Z,43.80
2018-02-07T21:11:19.305Z,43.87
2018-02-07T21:13:47.668Z,41.63
2018-02-07T21:16:16.026Z,44.53
2018-02-07T21:18:45.207Z,39.30
2018-02-07T21:21:13.557Z,44.13
2018-02-07T21:23:41.924Z,40.70
2018-02-07T21:26:10.352Z,41.53
2018-02-07T21:28:38.736Z,38.23
2018-02-07T21:31:07.843Z,39.00
2018-02-07T21:33:36.970Z,39.87
2018-02-07T21:36:05.329Z,37.47
2018-02-07T21:38:33.773Z,42.57
2018-02-07T21:41:03.165Z,38.60
2018-02-07T21:43:31.510Z,39.33
2018-02-07T21:45:59.882Z,34.37
2018-02-07T21:48:28.219Z,34.17
2018-02-07T21:50:56.573Z,36.17
2018-02-07T21:53:25.021Z,36.83
2018-02-07T21:55:53.369Z,36.37
2018-02-07T21:58:22.482Z,36.07
2018-02-07T22:00:50.835Z,34.40
2018-02-07T22:03:19.281Z,34.93
2018-02-07T22:05:47.631Z,39.50
2018-02-07T22:08:16.137Z,34.53
2018-02-07T22:10:44.497Z,36.40
2018-02-07T22:13:12.885Z,37.53
2018-02-07T22:15:41.245Z,36.33
2018-02-07T22:18:09.631Z,39.33
2018-02-07T22:20:38.113Z,34.77
2018-02-07T22:23:06.453Z,35.13
2018-02-07T22:25:34.795Z,40.87
2018-02-07T22:28:03.153Z,39.97
2018-02-07T22:30:31.556Z,40.60
2018-02-07T22:32:59.926Z,37.40
2018-02-07T22:35:28.303Z,38.03
2018-02-07T22:37:56.803Z,35.17
2018-02-07T22:40:25.157Z,37.17
2018-02-07T22:42:53.505Z,34.67
2018-02-07T22:45:22.633Z,41.97
2018-02-07T22:47:51.015Z,37.00
2018-02-07T22:50:19.387Z,31.40
2018-02-07T22:52:47.851Z,33.50
2018-02-07T22:55:16.444Z,38.47
2018-02-07T22:57:44.808Z,38.20
2018-02-07T23:00:13.948Z,35.60
2018-02-07T23:02:42.297Z,35.63
2018-02-07T23:05:10.698Z,35.50
2018-02-07T23:07:39.040Z,42.53
2018-02-07T23:10:08.156Z,39.33
2018-02-07T23:12:36.888Z,35.37
2018-02-07T23:15:05.272Z,33.80
2018-02-07T23:17:33.624Z,34.90
2018-02-07T23:20:01.974Z,30.73
2018-02-07T23:22:30.350Z,35.87
2018-02-07T23:24:59.490Z,37.00
2018-02-07T23:27:27.816Z,36.37
2018-02-07T23:29:57.057Z,38.17
2018-02-07T23:32:25.394Z,39.93
2018-02-07T23:34:53.747Z,37.60
2018-02-07T23:37:22.187Z,37.77
2018-02-07T23:39:50.536Z,36.07
2018-02-07T23:42:19.872Z,42.27
2018-02-07T23:44:48.224Z,36.63
2018-02-07T23:47:16.623Z,34.80
2018-02-07T23:49:44.969Z,34.67
2018-02-07T23:52:13.313Z,38.40
2018-02-07T23:54:41.668Z,37.37
2018-02-07T23:57:10.011Z,37.33
2018-02-07T23:59:38.373Z,40.40
